sensor_id;sensor_type;location;lat;lon;timestamp;P1;durP1;ratioP1;P2;durP2;ratioP2
16727;SDS011;8482;54.396;18.590;2023-06-14T00:00:58;5.18;;;2.10;;
16727;SDS011;8482;54.396;18.590;2023-06-14T00:03:24;6.50;;;2.20;;
16727;SDS011;8482;54.396;18.590;2023-06-14T00:05:51;3.65;;;2.25;;
16727;SDS011;8482;54.396;18.590;2023-06-14T00:08:17;3.88;;;2.10;;
16727;SDS011;8482;54.396;18.590;2023-06-14T00:10:44;5.15;;;2.25;;
16727;SDS011;8482;54.396;18.590;2023-06-14T00:13:10;4.43;;;2.10;;
16727;SDS011;8482;54.396;18.590;2023-06-14T00:15:36;3.92;;;2.08;;
16727;SDS011;8482;54.396;18.590;2023-06-14T00:18:03;4.47;;;1.88;;
16727;SDS011;8482;54.396;18.590;2023-06-14T00:20:30;5.15;;;2.10;;
16727;SDS011;8482;54.396;18.590;2023-06-14T00:23:01;3.50;;;1.67;;
16727;SDS011;8482;54.396;18.590;2023-06-14T00:25:27;3.35;;;1.80;;
16727;SDS011;8482;54.396;18.590;2023-06-14T00:27:54;3.10;;;1.77;;
16727;SDS011;8482;54.396;18.590;2023-06-14T00:30:21;3.80;;;2.10;;
16727;SDS011;8482;54.396;18.590;2023-06-14T00:32:47;3.75;;;2.33;;
16727;SDS011;8482;54.396;18.590;2023-06-14T00:35:13;3.88;;;1.92;;
16727;SDS011;8482;54.396;18.590;2023-06-14T00:37:40;4.47;;;1.90;;
16727;SDS011;8482;54.396;18.590;2023-06-14T00:40:06;4.40;;;2.15;;
16727;SDS011;8482;54.396;18.590;2023-06-14T00:42:32;3.75;;;1.98;;
16727;SDS011;8482;54.396;18.590;2023-06-14T00:44:59;3.33;;;1.80;;
16727;SDS011;8482;54.396;18.590;2023-06-14T00:47:25;7.13;;;2.00;;
16727;SDS011;8482;54.396;18.590;2023-06-14T00:49:52;3.92;;;1.88;;
16727;SDS011;8482;54.396;18.590;2023-06-14T00:52:20;3.67;;;1.88;;
16727;SDS011;8482;54.396;18.590;2023-06-14T00:54:51;4.00;;;1.80;;
16727;SDS011;8482;54.396;18.590;2023-06-14T00:57:17;5.40;;;2.00;;
16727;SDS011;8482;54.396;18.590;2023-06-14T00:59:44;4.18;;;2.13;;
16727;SDS011;8482;54.396;18.590;2023-06-14T01:02:13;4.00;;;2.03;;
16727;SDS011;8482;54.396;18.590;2023-06-14T01:04:40;4.35;;;1.65;;
16727;SDS011;8482;54.396;18.590;2023-06-14T01:13:15;3.83;;;1.90;;
16727;SDS011;8482;54.396;18.590;2023-06-14T01:15:53;3.63;;;1.90;;
16727;SDS011;8482;54.396;18.590;2023-06-14T01:18:21;4.22;;;2.08;;
16727;SDS011;8482;54.396;18.590;2023-06-14T01:20:49;3.45;;;1.67;;
16727;SDS011;8482;54.396;18.590;2023-06-14T01:23:16;4.10;;;1.95;;
16727;SDS011;8482;54.396;18.590;2023-06-14T01:25:43;4.78;;;2.00;;
16727;SDS011;8482;54.396;18.590;2023-06-14T01:28:10;4.13;;;1.90;;
16727;SDS011;8482;54.396;18.590;2023-06-14T01:30:39;3.67;;;1.95;;
16727;SDS011;8482;54.396;18.590;2023-06-14T01:33:11;4.82;;;1.88;;
16727;SDS011;8482;54.396;18.590;2023-06-14T01:35:40;3.95;;;2.05;;
16727;SDS011;8482;54.396;18.590;2023-06-14T01:38:08;5.28;;;2.47;;
16727;SDS011;8482;54.396;18.590;2023-06-14T01:40:35;5.32;;;2.20;;
16727;SDS011;8482;54.396;18.590;2023-06-14T01:43:02;5.63;;;2.25;;
16727;SDS011;8482;54.396;18.590;2023-06-14T01:45:29;4.25;;;2.20;;
16727;SDS011;8482;54.396;18.590;2023-06-14T01:47:57;4.13;;;1.80;;
16727;SDS011;8482;54.396;18.590;2023-06-14T01:50:27;4.07;;;2.15;;
16727;SDS011;8482;54.396;18.590;2023-06-14T01:52:57;4.68;;;2.10;;
16727;SDS011;8482;54.396;18.590;2023-06-14T01:55:23;3.72;;;1.98;;
16727;SDS011;8482;54.396;18.590;2023-06-14T01:57:52;3.97;;;2.00;;
16727;SDS011;8482;54.396;18.590;2023-06-14T02:00:19;4.70;;;2.20;;
16727;SDS011;8482;54.396;18.590;2023-06-14T02:02:46;4.00;;;2.22;;
16727;SDS011;8482;54.396;18.590;2023-06-14T02:05:12;4.07;;;1.80;;
16727;SDS011;8482;54.396;18.590;2023-06-14T02:07:38;3.72;;;2.08;;
16727;SDS011;8482;54.396;18.590;2023-06-14T02:10:04;3.45;;;2.13;;
16727;SDS011;8482;54.396;18.590;2023-06-14T02:12:31;3.72;;;2.30;;
16727;SDS011;8482;54.396;18.590;2023-06-14T02:14:57;4.18;;;1.92;;
16727;SDS011;8482;54.396;18.590;2023-06-14T02:17:23;4.10;;;2.05;;
16727;SDS011;8482;54.396;18.590;2023-06-14T02:19:49;5.22;;;2.40;;
16727;SDS011;8482;54.396;18.590;2023-06-14T02:22:15;4.28;;;2.30;;
16727;SDS011;8482;54.396;18.590;2023-06-14T02:24:42;3.97;;;2.20;;
16727;SDS011;8482;54.396;18.590;2023-06-14T02:27:08;5.35;;;2.00;;
16727;SDS011;8482;54.396;18.590;2023-06-14T02:29:35;4.13;;;1.95;;
16727;SDS011;8482;54.396;18.590;2023-06-14T02:32:02;3.50;;;2.10;;
16727;SDS011;8482;54.396;18.590;2023-06-14T02:34:29;3.80;;;2.00;;
16727;SDS011;8482;54.396;18.590;2023-06-14T02:36:55;4.97;;;2.38;;
16727;SDS011;8482;54.396;18.590;2023-06-14T02:39:22;5.07;;;2.47;;
16727;SDS011;8482;54.396;18.590;2023-06-14T02:41:48;4.05;;;2.20;;
16727;SDS011;8482;54.396;18.590;2023-06-14T02:44:16;3.75;;;2.08;;
16727;SDS011;8482;54.396;18.590;2023-06-14T02:46:43;3.90;;;2.03;;
16727;SDS011;8482;54.396;18.590;2023-06-14T02:49:10;4.50;;;2.10;;
16727;SDS011;8482;54.396;18.590;2023-06-14T02:51:36;3.38;;;2.05;;
16727;SDS011;8482;54.396;18.590;2023-06-14T02:54:02;4.20;;;2.33;;
16727;SDS011;8482;54.396;18.590;2023-06-14T02:56:28;4.28;;;2.20;;
16727;SDS011;8482;54.396;18.590;2023-06-14T02:58:55;5.70;;;2.35;;
16727;SDS011;8482;54.396;18.590;2023-06-14T03:01:22;3.28;;;1.98;;
16727;SDS011;8482;54.396;18.590;2023-06-14T03:04:02;4.05;;;2.20;;
16727;SDS011;8482;54.396;18.590;2023-06-14T03:06:29;5.40;;;2.17;;
16727;SDS011;8482;54.396;18.590;2023-06-14T03:08:57;4.00;;;2.25;;
16727;SDS011;8482;54.396;18.590;2023-06-14T03:11:29;4.03;;;2.10;;
16727;SDS011;8482;54.396;18.590;2023-06-14T03:13:56;3.65;;;2.17;;
16727;SDS011;8482;54.396;18.590;2023-06-14T03:16:22;4.32;;;2.47;;
16727;SDS011;8482;54.396;18.590;2023-06-14T03:18:52;4.43;;;2.00;;
16727;SDS011;8482;54.396;18.590;2023-06-14T03:21:21;4.38;;;2.10;;
16727;SDS011;8482;54.396;18.590;2023-06-14T03:23:47;3.40;;;2.15;;
16727;SDS011;8482;54.396;18.590;2023-06-14T03:26:14;3.75;;;2.53;;
16727;SDS011;8482;54.396;18.590;2023-06-14T03:28:43;3.92;;;2.40;;
16727;SDS011;8482;54.396;18.590;2023-06-14T03:31:11;5.10;;;2.28;;
16727;SDS011;8482;54.396;18.590;2023-06-14T03:33:38;5.63;;;2.33;;
16727;SDS011;8482;54.396;18.590;2023-06-14T03:36:05;4.80;;;2.50;;
16727;SDS011;8482;54.396;18.590;2023-06-14T03:38:32;3.42;;;1.98;;
16727;SDS011;8482;54.396;18.590;2023-06-14T03:40:58;4.78;;;2.63;;
16727;SDS011;8482;54.396;18.590;2023-06-14T03:43:24;4.43;;;2.30;;
16727;SDS011;8482;54.396;18.590;2023-06-14T03:45:50;4.00;;;2.60;;
16727;SDS011;8482;54.396;18.590;2023-06-14T03:48:16;4.95;;;2.70;;
16727;SDS011;8482;54.396;18.590;2023-06-14T03:50:42;4.90;;;2.70;;
16727;SDS011;8482;54.396;18.590;2023-06-14T03:53:09;4.70;;;2.20;;
16727;SDS011;8482;54.396;18.590;2023-06-14T03:55:35;5.32;;;2.67;;
16727;SDS011;8482;54.396;18.590;2023-06-14T03:58:02;5.00;;;2.35;;
16727;SDS011;8482;54.396;18.590;2023-06-14T04:00:29;4.10;;;2.28;;
16727;SDS011;8482;54.396;18.590;2023-06-14T04:02:55;4.68;;;2.53;;
16727;SDS011;8482;54.396;18.590;2023-06-14T04:05:21;5.60;;;2.33;;
16727;SDS011;8482;54.396;18.590;2023-06-14T04:07:46;5.07;;;2.65;;
16727;SDS011;8482;54.396;18.590;2023-06-14T04:10:13;4.85;;;2.63;;
16727;SDS011;8482;54.396;18.590;2023-06-14T04:12:41;5.22;;;2.60;;
16727;SDS011;8482;54.396;18.590;2023-06-14T04:15:08;4.38;;;2.25;;
16727;SDS011;8482;54.396;18.590;2023-06-14T04:17:35;5.38;;;2.33;;
16727;SDS011;8482;54.396;18.590;2023-06-14T04:20:02;3.72;;;2.28;;
16727;SDS011;8482;54.396;18.590;2023-06-14T04:22:33;4.18;;;2.30;;
16727;SDS011;8482;54.396;18.590;2023-06-14T04:24:59;4.13;;;2.38;;
16727;SDS011;8482;54.396;18.590;2023-06-14T04:27:26;6.38;;;2.78;;
16727;SDS011;8482;54.396;18.590;2023-06-14T04:29:53;6.25;;;2.58;;
16727;SDS011;8482;54.396;18.590;2023-06-14T04:32:24;5.93;;;2.25;;
16727;SDS011;8482;54.396;18.590;2023-06-14T04:34:55;5.53;;;2.47;;
16727;SDS011;8482;54.396;18.590;2023-06-14T04:37:22;6.25;;;2.85;;
16727;SDS011;8482;54.396;18.590;2023-06-14T04:39:48;3.75;;;2.20;;
16727;SDS011;8482;54.396;18.590;2023-06-14T04:42:15;5.80;;;2.88;;
16727;SDS011;8482;54.396;18.590;2023-06-14T04:44:42;4.07;;;2.50;;
16727;SDS011;8482;54.396;18.590;2023-06-14T04:47:09;4.95;;;2.35;;
16727;SDS011;8482;54.396;18.590;2023-06-14T04:49:37;5.20;;;2.95;;
16727;SDS011;8482;54.396;18.590;2023-06-14T04:52:05;4.60;;;2.60;;
16727;SDS011;8482;54.396;18.590;2023-06-14T04:54:32;5.45;;;3.00;;
16727;SDS011;8482;54.396;18.590;2023-06-14T04:56:59;4.47;;;2.50;;
16727;SDS011;8482;54.396;18.590;2023-06-14T04:59:25;5.43;;;2.97;;
16727;SDS011;8482;54.396;18.590;2023-06-14T05:01:51;5.28;;;2.65;;
16727;SDS011;8482;54.396;18.590;2023-06-14T05:04:18;5.63;;;2.55;;
16727;SDS011;8482;54.396;18.590;2023-06-14T05:06:46;6.00;;;2.70;;
16727;SDS011;8482;54.396;18.590;2023-06-14T05:09:15;4.85;;;2.60;;
16727;SDS011;8482;54.396;18.590;2023-06-14T05:11:44;5.72;;;2.90;;
16727;SDS011;8482;54.396;18.590;2023-06-14T05:14:11;4.93;;;2.60;;
16727;SDS011;8482;54.396;18.590;2023-06-14T05:16:37;4.63;;;2.40;;
16727;SDS011;8482;54.396;18.590;2023-06-14T05:19:04;5.93;;;2.95;;
16727;SDS011;8482;54.396;18.590;2023-06-14T05:21:30;4.90;;;2.83;;
16727;SDS011;8482;54.396;18.590;2023-06-14T05:23:58;6.97;;;3.15;;
16727;SDS011;8482;54.396;18.590;2023-06-14T05:26:24;6.28;;;3.17;;
16727;SDS011;8482;54.396;18.590;2023-06-14T05:28:54;8.88;;;3.65;;
16727;SDS011;8482;54.396;18.590;2023-06-14T05:31:25;8.77;;;3.50;;
16727;SDS011;8482;54.396;18.590;2023-06-14T05:33:52;6.07;;;3.10;;
16727;SDS011;8482;54.396;18.590;2023-06-14T05:36:19;6.07;;;3.08;;
16727;SDS011;8482;54.396;18.590;2023-06-14T05:38:46;8.23;;;3.60;;
16727;SDS011;8482;54.396;18.590;2023-06-14T05:41:12;7.18;;;3.78;;
16727;SDS011;8482;54.396;18.590;2023-06-14T05:43:38;6.10;;;3.30;;
16727;SDS011;8482;54.396;18.590;2023-06-14T05:46:04;6.40;;;3.38;;
16727;SDS011;8482;54.396;18.590;2023-06-14T05:48:30;6.50;;;3.03;;
16727;SDS011;8482;54.396;18.590;2023-06-14T05:50:56;8.70;;;3.28;;
16727;SDS011;8482;54.396;18.590;2023-06-14T05:53:22;7.50;;;2.95;;
16727;SDS011;8482;54.396;18.590;2023-06-14T05:55:49;5.85;;;3.20;;
16727;SDS011;8482;54.396;18.590;2023-06-14T05:58:18;4.97;;;2.90;;
16727;SDS011;8482;54.396;18.590;2023-06-14T06:00:45;7.03;;;3.55;;
16727;SDS011;8482;54.396;18.590;2023-06-14T06:03:11;6.78;;;2.88;;
16727;SDS011;8482;54.396;18.590;2023-06-14T06:05:38;5.13;;;2.97;;
16727;SDS011;8482;54.396;18.590;2023-06-14T06:08:04;8.65;;;3.15;;
16727;SDS011;8482;54.396;18.590;2023-06-14T06:10:30;8.48;;;3.67;;
16727;SDS011;8482;54.396;18.590;2023-06-14T06:12:57;8.05;;;3.85;;
16727;SDS011;8482;54.396;18.590;2023-06-14T06:15:22;10.05;;;4.15;;
16727;SDS011;8482;54.396;18.590;2023-06-14T06:17:49;7.25;;;3.40;;
16727;SDS011;8482;54.396;18.590;2023-06-14T06:20:16;6.63;;;3.45;;
16727;SDS011;8482;54.396;18.590;2023-06-14T06:22:42;7.57;;;3.70;;
16727;SDS011;8482;54.396;18.590;2023-06-14T06:25:08;6.43;;;3.60;;
16727;SDS011;8482;54.396;18.590;2023-06-14T06:27:35;8.23;;;4.47;;
16727;SDS011;8482;54.396;18.590;2023-06-14T06:30:05;7.65;;;3.95;;
16727;SDS011;8482;54.396;18.590;2023-06-14T06:32:32;8.07;;;3.88;;
16727;SDS011;8482;54.396;18.590;2023-06-14T06:34:58;7.22;;;3.75;;
16727;SDS011;8482;54.396;18.590;2023-06-14T06:37:25;8.50;;;3.97;;
16727;SDS011;8482;54.396;18.590;2023-06-14T06:39:51;7.50;;;3.83;;
16727;SDS011;8482;54.396;18.590;2023-06-14T06:42:17;7.68;;;3.78;;
16727;SDS011;8482;54.396;18.590;2023-06-14T06:44:42;10.13;;;3.70;;
16727;SDS011;8482;54.396;18.590;2023-06-14T06:47:08;7.70;;;3.53;;
16727;SDS011;8482;54.396;18.590;2023-06-14T06:49:36;6.70;;;3.20;;
16727;SDS011;8482;54.396;18.590;2023-06-14T06:52:02;7.70;;;3.33;;
16727;SDS011;8482;54.396;18.590;2023-06-14T06:54:31;7.45;;;3.30;;
16727;SDS011;8482;54.396;18.590;2023-06-14T06:56:58;7.68;;;3.50;;
16727;SDS011;8482;54.396;18.590;2023-06-14T06:59:26;7.97;;;3.80;;
16727;SDS011;8482;54.396;18.590;2023-06-14T07:01:52;7.60;;;3.30;;
16727;SDS011;8482;54.396;18.590;2023-06-14T07:04:18;7.00;;;3.40;;
16727;SDS011;8482;54.396;18.590;2023-06-14T07:06:45;5.68;;;3.35;;
16727;SDS011;8482;54.396;18.590;2023-06-14T07:09:12;7.53;;;3.50;;
16727;SDS011;8482;54.396;18.590;2023-06-14T07:11:40;7.53;;;3.40;;
16727;SDS011;8482;54.396;18.590;2023-06-14T07:14:07;6.65;;;3.50;;
16727;SDS011;8482;54.396;18.590;2023-06-14T07:16:33;7.05;;;3.03;;
16727;SDS011;8482;54.396;18.590;2023-06-14T07:18:59;7.35;;;3.22;;
16727;SDS011;8482;54.396;18.590;2023-06-14T07:21:27;7.07;;;3.28;;
16727;SDS011;8482;54.396;18.590;2023-06-14T07:23:53;6.40;;;3.38;;
16727;SDS011;8482;54.396;18.590;2023-06-14T07:26:19;7.28;;;3.15;;
16727;SDS011;8482;54.396;18.590;2023-06-14T07:28:46;6.00;;;3.15;;
16727;SDS011;8482;54.396;18.590;2023-06-14T07:31:13;6.10;;;3.08;;
16727;SDS011;8482;54.396;18.590;2023-06-14T07:33:41;6.03;;;3.08;;
16727;SDS011;8482;54.396;18.590;2023-06-14T07:36:07;7.38;;;3.17;;
16727;SDS011;8482;54.396;18.590;2023-06-14T07:38:34;5.75;;;3.08;;
16727;SDS011;8482;54.396;18.590;2023-06-14T07:41:00;4.88;;;2.65;;
16727;SDS011;8482;54.396;18.590;2023-06-14T07:43:26;5.03;;;2.60;;
16727;SDS011;8482;54.396;18.590;2023-06-14T07:45:52;4.47;;;2.38;;
16727;SDS011;8482;54.396;18.590;2023-06-14T07:48:18;6.05;;;3.10;;
16727;SDS011;8482;54.396;18.590;2023-06-14T07:50:44;5.30;;;2.90;;
16727;SDS011;8482;54.396;18.590;2023-06-14T07:53:10;5.38;;;2.60;;
16727;SDS011;8482;54.396;18.590;2023-06-14T07:55:36;5.15;;;2.70;;
16727;SDS011;8482;54.396;18.590;2023-06-14T07:58:02;7.28;;;2.90;;
16727;SDS011;8482;54.396;18.590;2023-06-14T08:00:28;5.55;;;2.85;;
16727;SDS011;8482;54.396;18.590;2023-06-14T08:02:54;5.97;;;2.90;;
16727;SDS011;8482;54.396;18.590;2023-06-14T08:05:24;6.80;;;3.13;;
16727;SDS011;8482;54.396;18.590;2023-06-14T08:07:51;5.30;;;2.72;;
16727;SDS011;8482;54.396;18.590;2023-06-14T08:10:17;5.88;;;2.70;;
16727;SDS011;8482;54.396;18.590;2023-06-14T08:12:43;4.68;;;2.67;;
16727;SDS011;8482;54.396;18.590;2023-06-14T08:15:09;5.03;;;2.78;;
16727;SDS011;8482;54.396;18.590;2023-06-14T08:17:36;5.72;;;2.78;;
16727;SDS011;8482;54.396;18.590;2023-06-14T08:20:02;5.57;;;2.95;;
16727;SDS011;8482;54.396;18.590;2023-06-14T08:22:30;6.03;;;2.80;;
16727;SDS011;8482;54.396;18.590;2023-06-14T08:24:59;6.65;;;2.75;;
16727;SDS011;8482;54.396;18.590;2023-06-14T08:27:26;6.25;;;2.75;;
16727;SDS011;8482;54.396;18.590;2023-06-14T08:29:52;6.05;;;2.78;;
16727;SDS011;8482;54.396;18.590;2023-06-14T08:32:18;6.10;;;2.70;;
16727;SDS011;8482;54.396;18.590;2023-06-14T08:34:44;6.10;;;2.92;;
16727;SDS011;8482;54.396;18.590;2023-06-14T08:37:10;5.60;;;2.85;;
16727;SDS011;8482;54.396;18.590;2023-06-14T08:39:37;6.20;;;3.22;;
16727;SDS011;8482;54.396;18.590;2023-06-14T08:42:03;7.03;;;3.47;;
16727;SDS011;8482;54.396;18.590;2023-06-14T08:44:32;8.52;;;3.30;;
16727;SDS011;8482;54.396;18.590;2023-06-14T08:47:02;7.13;;;3.70;;
16727;SDS011;8482;54.396;18.590;2023-06-14T08:49:28;6.72;;;3.83;;
16727;SDS011;8482;54.396;18.590;2023-06-14T08:51:57;9.32;;;4.72;;
16727;SDS011;8482;54.396;18.590;2023-06-14T08:54:29;9.95;;;4.50;;
16727;SDS011;8482;54.396;18.590;2023-06-14T08:56:56;9.98;;;4.30;;
16727;SDS011;8482;54.396;18.590;2023-06-14T08:59:25;9.00;;;4.15;;
16727;SDS011;8482;54.396;18.590;2023-06-14T09:01:52;9.48;;;4.57;;
16727;SDS011;8482;54.396;18.590;2023-06-14T09:04:22;10.90;;;5.18;;
16727;SDS011;8482;54.396;18.590;2023-06-14T09:06:54;12.98;;;6.00;;
16727;SDS011;8482;54.396;18.590;2023-06-14T09:09:21;14.63;;;6.97;;
16727;SDS011;8482;54.396;18.590;2023-06-14T09:11:49;15.57;;;8.25;;
16727;SDS011;8482;54.396;18.590;2023-06-14T09:14:15;19.88;;;9.45;;
16727;SDS011;8482;54.396;18.590;2023-06-14T09:16:43;22.65;;;10.60;;
16727;SDS011;8482;54.396;18.590;2023-06-14T09:19:13;18.60;;;9.02;;
16727;SDS011;8482;54.396;18.590;2023-06-14T09:21:50;19.50;;;8.40;;
16727;SDS011;8482;54.396;18.590;2023-06-14T09:24:17;15.35;;;8.10;;
16727;SDS011;8482;54.396;18.590;2023-06-14T09:26:47;15.02;;;7.93;;
16727;SDS011;8482;54.396;18.590;2023-06-14T09:29:16;13.57;;;6.45;;
16727;SDS011;8482;54.396;18.590;2023-06-14T09:31:45;13.02;;;6.10;;
16727;SDS011;8482;54.396;18.590;2023-06-14T09:34:12;12.20;;;5.68;;
16727;SDS011;8482;54.396;18.590;2023-06-14T09:36:39;9.63;;;5.40;;
16727;SDS011;8482;54.396;18.590;2023-06-14T09:39:07;9.65;;;5.45;;
16727;SDS011;8482;54.396;18.590;2023-06-14T09:41:35;9.10;;;4.68;;
16727;SDS011;8482;54.396;18.590;2023-06-14T09:44:03;10.82;;;4.75;;
16727;SDS011;8482;54.396;18.590;2023-06-14T09:46:31;8.20;;;4.32;;
16727;SDS011;8482;54.396;18.590;2023-06-14T09:48:58;8.35;;;3.97;;
16727;SDS011;8482;54.396;18.590;2023-06-14T09:51:25;8.20;;;3.97;;
16727;SDS011;8482;54.396;18.590;2023-06-14T09:53:55;7.55;;;3.65;;
16727;SDS011;8482;54.396;18.590;2023-06-14T09:56:27;9.13;;;3.42;;
16727;SDS011;8482;54.396;18.590;2023-06-14T09:58:58;7.65;;;3.13;;
16727;SDS011;8482;54.396;18.590;2023-06-14T10:01:25;5.90;;;2.97;;
16727;SDS011;8482;54.396;18.590;2023-06-14T10:03:55;5.40;;;2.90;;
16727;SDS011;8482;54.396;18.590;2023-06-14T10:06:28;4.32;;;2.40;;
16727;SDS011;8482;54.396;18.590;2023-06-14T10:08:59;5.65;;;2.33;;
16727;SDS011;8482;54.396;18.590;2023-06-14T10:11:26;4.80;;;2.53;;
16727;SDS011;8482;54.396;18.590;2023-06-14T10:13:54;4.72;;;2.40;;
16727;SDS011;8482;54.396;18.590;2023-06-14T10:21:43;4.45;;;1.85;;
16727;SDS011;8482;54.396;18.590;2023-06-14T10:24:22;4.15;;;2.17;;
16727;SDS011;8482;54.396;18.590;2023-06-14T10:26:57;3.38;;;2.13;;
16727;SDS011;8482;54.396;18.590;2023-06-14T10:29:27;3.97;;;2.20;;
16727;SDS011;8482;54.396;18.590;2023-06-14T10:31:58;3.90;;;1.98;;
16727;SDS011;8482;54.396;18.590;2023-06-14T10:34:26;5.88;;;2.30;;
16727;SDS011;8482;54.396;18.590;2023-06-14T10:37:01;4.63;;;2.40;;
16727;SDS011;8482;54.396;18.590;2023-06-14T10:39:39;7.20;;;3.20;;
16727;SDS011;8482;54.396;18.590;2023-06-14T10:42:13;6.32;;;2.92;;
16727;SDS011;8482;54.396;18.590;2023-06-14T10:44:45;5.60;;;2.63;;
16727;SDS011;8482;54.396;18.590;2023-06-14T10:47:22;6.03;;;3.33;;
16727;SDS011;8482;54.396;18.590;2023-06-14T10:50:04;7.70;;;3.35;;
16727;SDS011;8482;54.396;18.590;2023-06-14T10:52:41;8.23;;;3.50;;
16727;SDS011;8482;54.396;18.590;2023-06-14T10:57:47;5.32;;;2.50;;
16727;SDS011;8482;54.396;18.590;2023-06-14T11:00:17;4.18;;;2.35;;
16727;SDS011;8482;54.396;18.590;2023-06-14T11:05:49;3.45;;;2.20;;
16727;SDS011;8482;54.396;18.590;2023-06-14T11:11:25;3.45;;;1.90;;
16727;SDS011;8482;54.396;18.590;2023-06-14T11:14:00;3.80;;;2.10;;
16727;SDS011;8482;54.396;18.590;2023-06-14T11:16:27;3.63;;;1.85;;
16727;SDS011;8482;54.396;18.590;2023-06-14T11:18:54;4.07;;;2.10;;
16727;SDS011;8482;54.396;18.590;2023-06-14T11:21:20;3.05;;;1.80;;
16727;SDS011;8482;54.396;18.590;2023-06-14T11:23:50;2.95;;;1.77;;
16727;SDS011;8482;54.396;18.590;2023-06-14T11:26:23;4.07;;;1.70;;
16727;SDS011;8482;54.396;18.590;2023-06-14T11:28:57;2.78;;;1.85;;
16727;SDS011;8482;54.396;18.590;2023-06-14T11:31:25;2.83;;;1.73;;
16727;SDS011;8482;54.396;18.590;2023-06-14T11:33:58;3.83;;;2.30;;
16727;SDS011;8482;54.396;18.590;2023-06-14T11:36:29;3.10;;;1.75;;
16727;SDS011;8482;54.396;18.590;2023-06-14T11:39:02;2.92;;;1.63;;
16727;SDS011;8482;54.396;18.590;2023-06-14T11:41:32;3.33;;;1.90;;
16727;SDS011;8482;54.396;18.590;2023-06-14T11:44:04;2.30;;;1.70;;
16727;SDS011;8482;54.396;18.590;2023-06-14T11:46:31;3.50;;;2.15;;
16727;SDS011;8482;54.396;18.590;2023-06-14T11:48:57;3.70;;;1.80;;
16727;SDS011;8482;54.396;18.590;2023-06-14T11:51:23;3.13;;;1.80;;
16727;SDS011;8482;54.396;18.590;2023-06-14T11:53:49;3.20;;;1.73;;
16727;SDS011;8482;54.396;18.590;2023-06-14T11:56:16;2.17;;;1.60;;
16727;SDS011;8482;54.396;18.590;2023-06-14T11:58:43;3.40;;;1.80;;
16727;SDS011;8482;54.396;18.590;2023-06-14T12:01:09;2.92;;;1.80;;
16727;SDS011;8482;54.396;18.590;2023-06-14T12:03:39;2.40;;;1.70;;
16727;SDS011;8482;54.396;18.590;2023-06-14T12:06:16;3.72;;;1.73;;
16727;SDS011;8482;54.396;18.590;2023-06-14T12:08:58;2.30;;;1.63;;
16727;SDS011;8482;54.396;18.590;2023-06-14T12:11:27;3.78;;;2.10;;
16727;SDS011;8482;54.396;18.590;2023-06-14T12:13:58;2.78;;;1.63;;
16727;SDS011;8482;54.396;18.590;2023-06-14T12:16:29;2.80;;;1.70;;
16727;SDS011;8482;54.396;18.590;2023-06-14T12:19:11;4.05;;;2.00;;
16727;SDS011;8482;54.396;18.590;2023-06-14T12:21:42;5.68;;;1.83;;
16727;SDS011;8482;54.396;18.590;2023-06-14T12:24:13;3.15;;;1.70;;
16727;SDS011;8482;54.396;18.590;2023-06-14T12:26:40;3.22;;;1.85;;
16727;SDS011;8482;54.396;18.590;2023-06-14T12:29:07;2.45;;;1.63;;
16727;SDS011;8482;54.396;18.590;2023-06-14T12:31:33;2.28;;;1.60;;
16727;SDS011;8482;54.396;18.590;2023-06-14T12:33:59;2.58;;;1.63;;
16727;SDS011;8482;54.396;18.590;2023-06-14T12:36:25;3.22;;;1.70;;
16727;SDS011;8482;54.396;18.590;2023-06-14T12:38:51;2.65;;;1.80;;
16727;SDS011;8482;54.396;18.590;2023-06-14T12:41:20;1.70;;;1.50;;
16727;SDS011;8482;54.396;18.590;2023-06-14T12:43:47;2.55;;;1.60;;
16727;SDS011;8482;54.396;18.590;2023-06-14T12:46:13;2.92;;;1.70;;
16727;SDS011;8482;54.396;18.590;2023-06-14T12:48:39;2.45;;;1.60;;
16727;SDS011;8482;54.396;18.590;2023-06-14T12:51:05;2.70;;;1.60;;
16727;SDS011;8482;54.396;18.590;2023-06-14T12:53:31;3.58;;;2.08;;
16727;SDS011;8482;54.396;18.590;2023-06-14T12:55:57;2.78;;;1.90;;
16727;SDS011;8482;54.396;18.590;2023-06-14T12:58:23;4.18;;;1.60;;
16727;SDS011;8482;54.396;18.590;2023-06-14T13:00:49;3.25;;;1.73;;
16727;SDS011;8482;54.396;18.590;2023-06-14T13:03:15;2.38;;;1.52;;
16727;SDS011;8482;54.396;18.590;2023-06-14T13:05:41;4.55;;;1.80;;
16727;SDS011;8482;54.396;18.590;2023-06-14T13:08:08;3.25;;;1.77;;
16727;SDS011;8482;54.396;18.590;2023-06-14T13:10:34;3.88;;;1.83;;
16727;SDS011;8482;54.396;18.590;2023-06-14T13:13:00;3.70;;;1.90;;
16727;SDS011;8482;54.396;18.590;2023-06-14T13:15:26;3.08;;;1.70;;
16727;SDS011;8482;54.396;18.590;2023-06-14T13:17:52;2.97;;;1.70;;
16727;SDS011;8482;54.396;18.590;2023-06-14T13:20:18;3.35;;;2.08;;
16727;SDS011;8482;54.396;18.590;2023-06-14T13:22:44;4.65;;;2.10;;
16727;SDS011;8482;54.396;18.590;2023-06-14T13:25:10;4.30;;;2.30;;
16727;SDS011;8482;54.396;18.590;2023-06-14T13:27:36;2.38;;;1.75;;
16727;SDS011;8482;54.396;18.590;2023-06-14T13:30:03;3.28;;;2.00;;
16727;SDS011;8482;54.396;18.590;2023-06-14T13:32:30;4.00;;;1.85;;
16727;SDS011;8482;54.396;18.590;2023-06-14T13:34:57;3.05;;;1.98;;
16727;SDS011;8482;54.396;18.590;2023-06-14T13:37:23;3.00;;;1.67;;
16727;SDS011;8482;54.396;18.590;2023-06-14T13:39:49;4.20;;;2.28;;
16727;SDS011;8482;54.396;18.590;2023-06-14T13:42:15;3.35;;;1.95;;
16727;SDS011;8482;54.396;18.590;2023-06-14T13:44:40;3.72;;;2.05;;
16727;SDS011;8482;54.396;18.590;2023-06-14T13:47:06;3.90;;;2.13;;
16727;SDS011;8482;54.396;18.590;2023-06-14T13:49:32;3.38;;;2.03;;
16727;SDS011;8482;54.396;18.590;2023-06-14T13:52:00;4.20;;;2.30;;
16727;SDS011;8482;54.396;18.590;2023-06-14T13:54:26;4.28;;;2.33;;
16727;SDS011;8482;54.396;18.590;2023-06-14T13:56:52;4.30;;;2.38;;
16727;SDS011;8482;54.396;18.590;2023-06-14T13:59:19;3.00;;;1.85;;
16727;SDS011;8482;54.396;18.590;2023-06-14T14:01:45;3.35;;;1.80;;
16727;SDS011;8482;54.396;18.590;2023-06-14T14:04:11;3.25;;;1.90;;
16727;SDS011;8482;54.396;18.590;2023-06-14T14:06:37;2.28;;;1.67;;
16727;SDS011;8482;54.396;18.590;2023-06-14T14:09:03;4.72;;;1.90;;
16727;SDS011;8482;54.396;18.590;2023-06-14T14:11:28;4.00;;;2.20;;
16727;SDS011;8482;54.396;18.590;2023-06-14T14:13:57;3.13;;;2.00;;
16727;SDS011;8482;54.396;18.590;2023-06-14T14:16:23;3.78;;;2.00;;
16727;SDS011;8482;54.396;18.590;2023-06-14T14:18:48;4.40;;;2.28;;
16727;SDS011;8482;54.396;18.590;2023-06-14T14:21:14;3.08;;;1.85;;
16727;SDS011;8482;54.396;18.590;2023-06-14T14:23:40;3.08;;;1.70;;
16727;SDS011;8482;54.396;18.590;2023-06-14T14:26:06;2.75;;;2.00;;
16727;SDS011;8482;54.396;18.590;2023-06-14T14:28:32;4.22;;;2.30;;
16727;SDS011;8482;54.396;18.590;2023-06-14T14:30:58;3.63;;;2.10;;
16727;SDS011;8482;54.396;18.590;2023-06-14T14:33:24;4.75;;;2.00;;
16727;SDS011;8482;54.396;18.590;2023-06-14T14:35:50;3.45;;;1.83;;
16727;SDS011;8482;54.396;18.590;2023-06-14T14:38:16;3.45;;;2.17;;
16727;SDS011;8482;54.396;18.590;2023-06-14T14:40:42;3.60;;;1.60;;
16727;SDS011;8482;54.396;18.590;2023-06-14T14:43:09;3.33;;;1.60;;
16727;SDS011;8482;54.396;18.590;2023-06-14T14:45:36;2.90;;;1.70;;
16727;SDS011;8482;54.396;18.590;2023-06-14T14:48:02;3.63;;;1.80;;
16727;SDS011;8482;54.396;18.590;2023-06-14T14:50:28;3.08;;;1.90;;
16727;SDS011;8482;54.396;18.590;2023-06-14T14:52:55;3.55;;;1.90;;
16727;SDS011;8482;54.396;18.590;2023-06-14T14:55:21;3.42;;;1.60;;
16727;SDS011;8482;54.396;18.590;2023-06-14T14:57:47;3.25;;;1.83;;
16727;SDS011;8482;54.396;18.590;2023-06-14T15:00:13;3.00;;;1.67;;
16727;SDS011;8482;54.396;18.590;2023-06-14T15:02:39;3.33;;;1.85;;
16727;SDS011;8482;54.396;18.590;2023-06-14T15:05:05;3.15;;;1.77;;
16727;SDS011;8482;54.396;18.590;2023-06-14T15:07:32;4.90;;;1.98;;
16727;SDS011;8482;54.396;18.590;2023-06-14T15:09:59;4.78;;;1.80;;